sensor_id;sensor_type;location;lat;lon;timestamp;temperature;humidity
29007;DHT22;16104;48.642;9.008;2023-08-12T01:03:09;23.10;54.10
29007;DHT22;16104;48.642;9.008;2023-08-12T01:08:05;23.10;54.40
29007;DHT22;16104;48.642;9.008;2023-08-12T01:13:16;23.00;54.70
29007;DHT22;16104;48.642;9.008;2023-08-12T02:04:03;22.60;55.80
29007;DHT22;16104;48.642;9.008;2023-08-12T02:08:59;22.60;55.90
29007;DHT22;16104;48.642;9.008;2023-08-12T02:13:54;22.50;56.10
29007;DHT22;16104;48.642;9.008;2023-08-12T03:04:58;22.40;57.40
29007;DHT22;16104;48.642;9.008;2023-08-12T03:09:53;22.30;57.50
29007;DHT22;16104;48.642;9.008;2023-08-12T03:14:50;22.30;57.50
29007;DHT22;16104;48.642;9.008;2023-08-12T03:19:46;22.30;57.80
29007;DHT22;16104;48.642;9.008;2023-08-12T03:24:41;22.20;57.90
29007;DHT22;16104;48.642;9.008;2023-08-12T03:29:37;22.20;57.90
29007;DHT22;16104;48.642;9.008;2023-08-12T03:34:32;22.20;58.20
29007;DHT22;16104;48.642;9.008;2023-08-12T03:39:28;22.30;58.10
29007;DHT22;16104;48.642;9.008;2023-08-12T03:44:24;22.30;58.30
29007;DHT22;16104;48.642;9.008;2023-08-12T03:49:19;22.40;58.10
29007;DHT22;16104;48.642;9.008;2023-08-12T03:54:15;22.40;58.40
29007;DHT22;16104;48.642;9.008;2023-08-12T03:59:10;22.40;58.40
29007;DHT22;16104;48.642;9.008;2023-08-12T04:04:06;22.50;58.10
29007;DHT22;16104;48.642;9.008;2023-08-12T04:09:01;22.50;58.00
29007;DHT22;16104;48.642;9.008;2023-08-12T04:13:57;22.50;58.10
29007;DHT22;16104;48.642;9.008;2023-08-12T04:18:53;22.50;58.10
29007;DHT22;16104;48.642;9.008;2023-08-12T04:23:48;22.50;58.10
29007;DHT22;16104;48.642;9.008;2023-08-12T04:28:44;22.60;58.30
29007;DHT22;16104;48.642;9.008;2023-08-12T04:33:39;22.60;58.20
29007;DHT22;16104;48.642;9.008;2023-08-12T04:38:35;22.70;58.90
29007;DHT22;16104;48.642;9.008;2023-08-12T04:43:30;22.70;58.30
29007;DHT22;16104;48.642;9.008;2023-08-12T04:48:26;22.70;58.20
29007;DHT22;16104;48.642;9.008;2023-08-12T04:53:21;22.70;58.30
29007;DHT22;16104;48.642;9.008;2023-08-12T04:58:17;22.80;58.70
29007;DHT22;16104;48.642;9.008;2023-08-12T05:03:12;22.80;58.80
29007;DHT22;16104;48.642;9.008;2023-08-12T05:08:08;22.80;58.80
29007;DHT22;16104;48.642;9.008;2023-08-12T05:13:03;22.80;58.70
29007;DHT22;16104;48.642;9.008;2023-08-12T05:17:59;22.90;58.90
29007;DHT22;16104;48.642;9.008;2023-08-12T05:22:54;22.90;59.20
29007;DHT22;16104;48.642;9.008;2023-08-12T05:27:50;22.80;58.90
29007;DHT22;16104;48.642;9.008;2023-08-12T05:32:46;22.90;59.30
29007;DHT22;16104;48.642;9.008;2023-08-12T05:37:41;22.80;59.30
29007;DHT22;16104;48.642;9.008;2023-08-12T05:42:37;22.90;59.50
29007;DHT22;16104;48.642;9.008;2023-08-12T05:47:33;22.90;59.20
29007;DHT22;16104;48.642;9.008;2023-08-12T05:52:28;22.90;59.60
29007;DHT22;16104;48.642;9.008;2023-08-12T05:57:24;22.90;59.70
29007;DHT22;16104;48.642;9.008;2023-08-12T06:02:19;23.00;59.70
29007;DHT22;16104;48.642;9.008;2023-08-12T06:07:15;23.10;59.90
29007;DHT22;16104;48.642;9.008;2023-08-12T06:12:10;23.10;59.80
29007;DHT22;16104;48.642;9.008;2023-08-12T06:17:06;23.20;60.00
29007;DHT22;16104;48.642;9.008;2023-08-12T06:22:01;23.20;59.70
29007;DHT22;16104;48.642;9.008;2023-08-12T06:26:58;23.30;59.90
29007;DHT22;16104;48.642;9.008;2023-08-12T06:31:54;23.40;59.90
29007;DHT22;16104;48.642;9.008;2023-08-12T06:36:50;23.50;60.20
29007;DHT22;16104;48.642;9.008;2023-08-12T06:41:45;23.60;60.20
29007;DHT22;16104;48.642;9.008;2023-08-12T06:46:41;23.80;60.00
29007;DHT22;16104;48.642;9.008;2023-08-12T06:51:37;24.00;59.90
29007;DHT22;16104;48.642;9.008;2023-08-12T06:56:32;24.20;59.50
29007;DHT22;16104;48.642;9.008;2023-08-12T07:01:28;24.40;59.20
29007;DHT22;16104;48.642;9.008;2023-08-12T07:06:23;24.60;58.60
29007;DHT22;16104;48.642;9.008;2023-08-12T07:11:19;24.80;57.50
29007;DHT22;16104;48.642;9.008;2023-08-12T07:16:14;24.90;57.10
29007;DHT22;16104;48.642;9.008;2023-08-12T07:21:10;25.10;56.70
29007;DHT22;16104;48.642;9.008;2023-08-12T07:26:05;25.30;56.30
29007;DHT22;16104;48.642;9.008;2023-08-12T07:31:02;25.60;56.00
29007;DHT22;16104;48.642;9.008;2023-08-12T07:35:57;25.80;55.90
29007;DHT22;16104;48.642;9.008;2023-08-12T07:40:53;26.00;55.40
29007;DHT22;16104;48.642;9.008;2023-08-12T07:45:53;26.20;54.80
29007;DHT22;16104;48.642;9.008;2023-08-12T07:50:58;26.40;54.20
29007;DHT22;16104;48.642;9.008;2023-08-12T07:55:54;26.60;53.70
29007;DHT22;16104;48.642;9.008;2023-08-12T08:00:52;26.80;53.20
29007;DHT22;16104;48.642;9.008;2023-08-12T08:05:49;27.10;52.80
29007;DHT22;16104;48.642;9.008;2023-08-12T08:10:44;27.30;52.60
29007;DHT22;16104;48.642;9.008;2023-08-12T08:15:40;27.50;52.10
29007;DHT22;16104;48.642;9.008;2023-08-12T08:20:35;27.70;51.80
29007;DHT22;16104;48.642;9.008;2023-08-12T08:25:31;28.00;51.00
29007;DHT22;16104;48.642;9.008;2023-08-12T08:30:27;28.10;50.50
29007;DHT22;16104;48.642;9.008;2023-08-12T08:35:23;28.40;50.20
29007;DHT22;16104;48.642;9.008;2023-08-12T08:40:18;28.60;49.90
29007;DHT22;16104;48.642;9.008;2023-08-12T08:45:15;28.80;49.70
29007;DHT22;16104;48.642;9.008;2023-08-12T08:50:11;28.90;49.10
29007;DHT22;16104;48.642;9.008;2023-08-12T08:55:07;29.10;49.40
29007;DHT22;16104;48.642;9.008;2023-08-12T09:00:03;29.20;49.40
29007;DHT22;16104;48.642;9.008;2023-08-12T09:05:03;29.40;49.40
29007;DHT22;16104;48.642;9.008;2023-08-12T09:10:00;29.70;49.50
29007;DHT22;16104;48.642;9.008;2023-08-12T09:14:56;29.90;48.90
29007;DHT22;16104;48.642;9.008;2023-08-12T09:19:51;30.20;48.60
29007;DHT22;16104;48.642;9.008;2023-08-12T09:24:49;30.40;47.40
29007;DHT22;16104;48.642;9.008;2023-08-12T09:29:45;30.60;47.00
29007;DHT22;16104;48.642;9.008;2023-08-12T09:34:54;30.80;46.90
29007;DHT22;16104;48.642;9.008;2023-08-12T09:39:51;30.90;46.20
29007;DHT22;16104;48.642;9.008;2023-08-12T09:44:47;31.10;46.80
29007;DHT22;16104;48.642;9.008;2023-08-12T09:49:42;31.20;46.20
29007;DHT22;16104;48.642;9.008;2023-08-12T09:54:38;31.20;45.50
29007;DHT22;16104;48.642;9.008;2023-08-12T09:59:35;31.20;45.20
29007;DHT22;16104;48.642;9.008;2023-08-12T10:04:50;31.20;45.60
29007;DHT22;16104;48.642;9.008;2023-08-12T10:09:49;31.20;45.80
29007;DHT22;16104;48.642;9.008;2023-08-12T10:14:44;31.20;45.00
29007;DHT22;16104;48.642;9.008;2023-08-12T10:19:46;31.20;45.60
29007;DHT22;16104;48.642;9.008;2023-08-12T10:24:43;31.20;45.30
29007;DHT22;16104;48.642;9.008;2023-08-12T10:29:42;31.20;45.60
29007;DHT22;16104;48.642;9.008;2023-08-12T10:34:38;31.30;45.60
29007;DHT22;16104;48.642;9.008;2023-08-12T10:39:34;31.30;45.90
29007;DHT22;16104;48.642;9.008;2023-08-12T10:44:49;31.30;45.60
29007;DHT22;16104;48.642;9.008;2023-08-12T10:49:50;31.40;45.10
29007;DHT22;16104;48.642;9.008;2023-08-12T10:54:48;31.50;45.10
29007;DHT22;16104;48.642;9.008;2023-08-12T11:04:42;31.70;43.60
29007;DHT22;16104;48.642;9.008;2023-08-12T11:09:38;31.90;44.80
29007;DHT22;16104;48.642;9.008;2023-08-12T11:14:47;32.00;44.10
29007;DHT22;16104;48.642;9.008;2023-08-12T11:19:43;32.10;43.90
29007;DHT22;16104;48.642;9.008;2023-08-12T11:24:41;32.20;44.00
29007;DHT22;16104;48.642;9.008;2023-08-12T11:29:38;32.30;43.40
29007;DHT22;16104;48.642;9.008;2023-08-12T11:34:34;32.40;42.80
29007;DHT22;16104;48.642;9.008;2023-08-12T11:39:29;32.40;42.60
29007;DHT22;16104;48.642;9.008;2023-08-12T11:44:25;32.40;41.80
29007;DHT22;16104;48.642;9.008;2023-08-12T11:49:21;32.40;41.70
29007;DHT22;16104;48.642;9.008;2023-08-12T11:54:16;32.40;42.40
29007;DHT22;16104;48.642;9.008;2023-08-12T11:59:12;32.60;42.00
29007;DHT22;16104;48.642;9.008;2023-08-12T12:04:10;32.70;41.40
29007;DHT22;16104;48.642;9.008;2023-08-12T12:09:07;32.70;41.10
29007;DHT22;16104;48.642;9.008;2023-08-12T12:14:06;32.60;41.20
29007;DHT22;16104;48.642;9.008;2023-08-12T12:19:02;32.60;40.90
29007;DHT22;16104;48.642;9.008;2023-08-12T12:23:59;32.40;41.80
29007;DHT22;16104;48.642;9.008;2023-08-12T12:28:54;32.10;43.60
29007;DHT22;16104;48.642;9.008;2023-08-12T12:33:50;31.70;44.60
29007;DHT22;16104;48.642;9.008;2023-08-12T12:38:45;31.20;44.90
29007;DHT22;16104;48.642;9.008;2023-08-12T12:43:41;30.60;47.00
29007;DHT22;16104;48.642;9.008;2023-08-12T12:48:36;30.10;47.70
29007;DHT22;16104;48.642;9.008;2023-08-12T12:53:32;29.70;49.20
29007;DHT22;16104;48.642;9.008;2023-08-12T12:58:27;29.50;49.60
29007;DHT22;16104;48.642;9.008;2023-08-12T13:03:23;29.20;50.40
29007;DHT22;16104;48.642;9.008;2023-08-12T13:08:18;29.00;50.50
29007;DHT22;16104;48.642;9.008;2023-08-12T13:13:15;28.80;50.90
29007;DHT22;16104;48.642;9.008;2023-08-12T13:18:13;28.60;51.80
29007;DHT22;16104;48.642;9.008;2023-08-12T13:23:08;28.40;52.40
29007;DHT22;16104;48.642;9.008;2023-08-12T13:28:04;28.20;52.90
29007;DHT22;16104;48.642;9.008;2023-08-12T13:33:00;28.10;53.70
29007;DHT22;16104;48.642;9.008;2023-08-12T13:37:55;28.10;53.90
29007;DHT22;16104;48.642;9.008;2023-08-12T13:42:51;28.00;53.40
29007;DHT22;16104;48.642;9.008;2023-08-12T13:47:47;28.10;54.00
29007;DHT22;16104;48.642;9.008;2023-08-12T13:52:42;28.30;53.30
29007;DHT22;16104;48.642;9.008;2023-08-12T13:57:38;28.40;53.00
29007;DHT22;16104;48.642;9.008;2023-08-12T14:02:33;28.40;53.40
29007;DHT22;16104;48.642;9.008;2023-08-12T14:07:29;28.50;54.20
29007;DHT22;16104;48.642;9.008;2023-08-12T14:12:25;28.70;53.40
29007;DHT22;16104;48.642;9.008;2023-08-12T14:17:21;28.90;53.00
29007;DHT22;16104;48.642;9.008;2023-08-12T14:22:18;29.20;52.60
29007;DHT22;16104;48.642;9.008;2023-08-12T14:27:15;29.60;51.80
29007;DHT22;16104;48.642;9.008;2023-08-12T14:32:12;29.90;51.00
29007;DHT22;16104;48.642;9.008;2023-08-12T14:37:08;30.30;50.20
29007;DHT22;16104;48.642;9.008;2023-08-12T14:42:04;30.60;51.20
29007;DHT22;16104;48.642;9.008;2023-08-12T14:46:59;30.80;50.50
29007;DHT22;16104;48.642;9.008;2023-08-12T14:51:55;31.20;49.80
29007;DHT22;16104;48.642;9.008;2023-08-12T14:56:52;31.50;49.30
29007;DHT22;16104;48.642;9.008;2023-08-12T15:01:47;31.80;49.00
29007;DHT22;16104;48.642;9.008;2023-08-12T15:06:43;32.10;48.40
29007;DHT22;16104;48.642;9.008;2023-08-12T15:11:38;32.30;46.90
29007;DHT22;16104;48.642;9.008;2023-08-12T15:16:34;32.60;46.60
29007;DHT22;16104;48.642;9.008;2023-08-12T15:21:29;32.70;46.60
29007;DHT22;16104;48.642;9.008;2023-08-12T15:26:25;32.80;46.40
29007;DHT22;16104;48.642;9.008;2023-08-12T15:31:20;32.90;45.60
29007;DHT22;16104;48.642;9.008;2023-08-12T15:36:16;32.80;45.40
29007;DHT22;16104;48.642;9.008;2023-08-12T15:41:13;32.70;45.40
29007;DHT22;16104;48.642;9.008;2023-08-12T15:46:09;32.40;45.20
29007;DHT22;16104;48.642;9.008;2023-08-12T15:51:04;32.20;45.90
29007;DHT22;16104;48.642;9.008;2023-08-12T15:56:00;32.00;45.80
29007;DHT22;16104;48.642;9.008;2023-08-12T16:00:56;31.80;46.10
29007;DHT22;16104;48.642;9.008;2023-08-12T16:05:56;31.60;46.50
29007;DHT22;16104;48.642;9.008;2023-08-12T16:10:53;31.40;46.80
29007;DHT22;16104;48.642;9.008;2023-08-12T16:15:49;31.30;47.70
29007;DHT22;16104;48.642;9.008;2023-08-12T16:20:44;31.00;47.80
29007;DHT22;16104;48.642;9.008;2023-08-12T16:25:40;30.60;48.50
29007;DHT22;16104;48.642;9.008;2023-08-12T16:30:35;30.20;49.50
29007;DHT22;16104;48.642;9.008;2023-08-12T16:35:31;29.90;50.60
29007;DHT22;16104;48.642;9.008;2023-08-12T16:40:27;29.50;51.40
29007;DHT22;16104;48.642;9.008;2023-08-12T16:45:25;29.20;52.30
29007;DHT22;16104;48.642;9.008;2023-08-12T16:50:21;28.80;52.70
29007;DHT22;16104;48.642;9.008;2023-08-12T16:55:16;28.50;53.40
29007;DHT22;16104;48.642;9.008;2023-08-12T17:00:12;28.30;54.00
29007;DHT22;16104;48.642;9.008;2023-08-12T17:05:08;28.00;54.80
29007;DHT22;16104;48.642;9.008;2023-08-12T17:10:04;27.80;55.40
29007;DHT22;16104;48.642;9.008;2023-08-12T17:15:00;27.70;56.00
29007;DHT22;16104;48.642;9.008;2023-08-12T17:19:55;27.60;56.70
29007;DHT22;16104;48.642;9.008;2023-08-12T17:24:51;27.60;57.00
29007;DHT22;16104;48.642;9.008;2023-08-12T17:29:46;27.60;56.90
29007;DHT22;16104;48.642;9.008;2023-08-12T17:34:42;27.60;57.40
29007;DHT22;16104;48.642;9.008;2023-08-12T17:39:38;27.60;57.20
29007;DHT22;16104;48.642;9.008;2023-08-12T17:44:34;27.60;56.90
29007;DHT22;16104;48.642;9.008;2023-08-12T17:49:29;27.60;57.20
29007;DHT22;16104;48.642;9.008;2023-08-12T17:54:24;27.60;57.70
29007;DHT22;16104;48.642;9.008;2023-08-12T17:59:24;27.60;57.50
29007;DHT22;16104;48.642;9.008;2023-08-12T18:04:20;27.60;57.40
29007;DHT22;16104;48.642;9.008;2023-08-12T18:09:15;27.60;57.30
29007;DHT22;16104;48.642;9.008;2023-08-12T18:14:13;27.50;57.50
29007;DHT22;16104;48.642;9.008;2023-08-12T18:19:09;27.40;57.50
29007;DHT22;16104;48.642;9.008;2023-08-12T18:24:05;27.40;57.50
29007;DHT22;16104;48.642;9.008;2023-08-12T18:29:00;27.30;57.70
29007;DHT22;16104;48.642;9.008;2023-08-12T18:33:56;27.20;57.80
29007;DHT22;16104;48.642;9.008;2023-08-12T18:38:51;27.10;57.90
29007;DHT22;16104;48.642;9.008;2023-08-12T18:43:47;27.00;58.30
29007;DHT22;16104;48.642;9.008;2023-08-12T18:48:43;26.90;58.40
29007;DHT22;16104;48.642;9.008;2023-08-12T18:53:38;26.90;58.60
29007;DHT22;16104;48.642;9.008;2023-08-12T18:58:33;26.80;58.90
29007;DHT22;16104;48.642;9.008;2023-08-12T19:03:29;26.70;59.20
29007;DHT22;16104;48.642;9.008;2023-08-12T19:08:25;26.70;59.90
29007;DHT22;16104;48.642;9.008;2023-08-12T19:13:22;26.60;60.20
29007;DHT22;16104;48.642;9.008;2023-08-12T19:18:17;26.60;60.20
29007;DHT22;16104;48.642;9.008;2023-08-12T19:23:13;26.50;60.90
29007;DHT22;16104;48.642;9.008;2023-08-12T19:28:09;26.50;60.80
29007;DHT22;16104;48.642;9.008;2023-08-12T19:33:04;26.40;61.30
29007;DHT22;16104;48.642;9.008;2023-08-12T19:38:00;26.40;61.50
29007;DHT22;16104;48.642;9.008;2023-08-12T19:42:55;26.30;61.50
29007;DHT22;16104;48.642;9.008;2023-08-12T19:47:51;26.20;61.70
29007;DHT22;16104;48.642;9.008;2023-08-12T19:52:47;26.20;62.00
29007;DHT22;16104;48.642;9.008;2023-08-12T19:57:42;26.10;61.90
29007;DHT22;16104;48.642;9.008;2023-08-12T20:02:38;26.00;63.00
29007;DHT22;16104;48.642;9.008;2023-08-12T20:07:33;26.00;62.10
29007;DHT22;16104;48.642;9.008;2023-08-12T20:12:29;25.90;62.40
29007;DHT22;16104;48.642;9.008;2023-08-12T20:17:24;25.80;62.40
29007;DHT22;16104;48.642;9.008;2023-08-12T20:22:20;25.70;62.70
29007;DHT22;16104;48.642;9.008;2023-08-12T20:27:18;25.70;62.60
29007;DHT22;16104;48.642;9.008;2023-08-12T20:32:13;25.60;62.60
29007;DHT22;16104;48.642;9.008;2023-08-12T20:37:09;25.50;62.50
29007;DHT22;16104;48.642;9.008;2023-08-12T20:42:05;25.40;62.80
29007;DHT22;16104;48.642;9.008;2023-08-12T20:47:00;25.40;62.50
29007;DHT22;16104;48.642;9.008;2023-08-12T20:51:56;25.30;62.90
29007;DHT22;16104;48.642;9.008;2023-08-12T20:56:51;25.20;63.30
29007;DHT22;16104;48.642;9.008;2023-08-12T21:01:47;25.20;63.70
29007;DHT22;16104;48.642;9.008;2023-08-12T21:06:43;25.10;63.60
29007;DHT22;16104;48.642;9.008;2023-08-12T21:11:38;25.10;63.90
29007;DHT22;16104;48.642;9.008;2023-08-12T21:16:34;25.10;63.60
29007;DHT22;16104;48.642;9.008;2023-08-12T21:21:29;25.00;63.60
29007;DHT22;16104;48.642;9.008;2023-08-12T21:26:25;25.00;63.90
29007;DHT22;16104;48.642;9.008;2023-08-12T21:31:20;24.90;63.70
29007;DHT22;16104;48.642;9.008;2023-08-12T21:36:16;24.90;64.00
29007;DHT22;16104;48.642;9.008;2023-08-12T21:41:11;24.90;64.00
29007;DHT22;16104;48.642;9.008;2023-08-12T21:46:07;24.80;64.20
29007;DHT22;16104;48.642;9.008;2023-08-12T21:51:02;24.80;65.00
29007;DHT22;16104;48.642;9.008;2023-08-12T21:55:58;24.70;64.00
29007;DHT22;16104;48.642;9.008;2023-08-12T22:00:55;24.70;64.20
29007;DHT22;16104;48.642;9.008;2023-08-12T22:05:51;24.60;64.30
29007;DHT22;16104;48.642;9.008;2023-08-12T22:10:46;24.50;64.30
29007;DHT22;16104;48.642;9.008;2023-08-12T22:15:42;24.50;64.60
29007;DHT22;16104;48.642;9.008;2023-08-12T22:20:38;24.40;64.40
29007;DHT22;16104;48.642;9.008;2023-08-12T22:25:33;24.40;64.60
29007;DHT22;16104;48.642;9.008;2023-08-12T22:30:29;24.30;64.50
29007;DHT22;16104;48.642;9.008;2023-08-12T22:35:24;24.30;64.70
29007;DHT22;16104;48.642;9.008;2023-08-12T22:40:20;24.20;65.00
29007;DHT22;16104;48.642;9.008;2023-08-12T22:45:15;24.10;64.80
29007;DHT22;16104;48.642;9.008;2023-08-12T22:50:11;24.10;64.90
29007;DHT22;16104;48.642;9.008;2023-08-12T22:55:08;24.00;65.00
29007;DHT22;16104;48.642;9.008;2023-08-12T23:00:04;23.90;65.40
29007;DHT22;16104;48.642;9.008;2023-08-12T23:05:02;23.80;65.60
29007;DHT22;16104;48.642;9.008;2023-08-12T23:09:57;23.80;65.60
29007;DHT22;16104;48.642;9.008;2023-08-12T23:14:54;23.70;65.80
29007;DHT22;16104;48.642;9.008;2023-08-12T23:19:49;23.70;65.90
29007;DHT22;16104;48.642;9.008;2023-08-12T23:24:45;23.60;66.30
29007;DHT22;16104;48.642;9.008;2023-08-12T23:29:40;23.60;67.10
29007;DHT22;16104;48.642;9.008;2023-08-12T23:34:36;23.50;66.30
29007;DHT22;16104;48.642;9.008;2023-08-12T23:39:31;23.50;66.20
29007;DHT22;16104;48.642;9.008;2023-08-12T23:44:27;23.50;66.20
29007;DHT22;16104;48.642;9.008;2023-08-12T23:49:22;23.40;66.20
29007;DHT22;16104;48.642;9.008;2023-08-12T23:54:18;23.40;66.20
29007;DHT22;16104;48.642;9.008;2023-08-12T23:59:13;23.30;66.20
